Time;durP1;ratioP1;P1;durP2;ratioP2;P2;SDS_P1;SDS_P2;PMS_P1;PMS_P2;Temp;Humidity;BMP_temperature;BMP_pressure;BME280_temperature;BME280_humidity;BME280_pressure;Samples;Min_cycle;Max_cycle;Signal;HPM_P1;HPM_P2
2020/12/20 00:00:27;;;;;;;14.38;5.78;;;;;;;4.99;92.17;98576.78;4973571;28;45242;-76
2020/12/20 00:02:54;;;;;;;18.80;8.98;;;;;;;4.94;91.86;98585.88;4957160;28;45430;-77
2020/12/20 00:05:26;;;;;;;18.52;12.18;;;;;;;4.80;92.19;98580.72;4941045;28;45479;-77
2020/12/20 00:07:52;;;;;;;26.23;15.95;;;;;;;4.71;93.08;98574.34;4942224;28;45452;-77
2020/12/20 00:10:19;;;;;;;25.65;14.43;;;;;;;4.81;93.23;98569.25;4942255;28;45364;-77
2020/12/20 00:12:46;;;;;;;22.33;12.43;;;;;;;4.86;92.54;98558.38;4941966;28;45441;-76
2020/12/20 00:15:12;;;;;;;15.40;7.90;;;;;;;4.86;92.50;98564.50;4942298;28;45307;-77
2020/12/20 00:17:37;;;;;;;17.08;5.45;;;;;;;4.77;93.03;98567.78;4941647;28;45455;-77
2020/12/20 00:20:05;;;;;;;12.27;5.35;;;;;;;4.76;93.67;98563.47;4942162;28;45376;-77
2020/12/20 00:22:30;;;;;;;18.33;7.55;;;;;;;4.80;93.50;98551.75;4942215;28;45504;-77
2020/12/20 00:24:56;;;;;;;14.23;7.13;;;;;;;4.84;93.92;98552.38;4957076;28;45564;-77
2020/12/20 00:27:21;;;;;;;13.73;8.13;;;;;;;4.88;94.05;98543.28;4941499;28;45327;-77
2020/12/20 00:29:47;;;;;;;24.73;13.88;;;;;;;4.90;92.47;98536.13;4942169;28;45291;-77
2020/12/20 00:32:12;;;;;;;22.52;13.73;;;;;;;4.75;92.76;98543.34;4941811;28;45482;-77
2020/12/20 00:34:39;;;;;;;23.83;13.27;;;;;;;4.70;92.59;98543.69;4956908;28;45295;-77
2020/12/20 00:37:06;;;;;;;19.60;12.30;;;;;;;4.78;92.54;98553.66;4928673;28;45657;-77
2020/12/20 00:39:32;;;;;;;16.92;9.05;;;;;;;4.82;93.45;98545.41;4940712;28;45271;-77
2020/12/20 00:42:00;;;;;;;7.80;3.70;;;;;;;4.88;93.78;98544.16;4941594;28;45464;-77
2020/12/20 00:44:26;;;;;;;7.45;3.55;;;;;;;4.93;92.62;98549.06;4956660;28;45548;-77
2020/12/20 00:46:52;;;;;;;4.80;2.08;;;;;;;4.91;94.39;98557.09;4941263;28;45941;-76
2020/12/20 00:49:18;;;;;;;5.00;2.10;;;;;;;5.00;93.74;98547.66;4941828;28;45292;-77
2020/12/20 00:51:43;;;;;;;4.90;2.30;;;;;;;4.91;93.15;98548.34;4941672;28;45287;-77
2020/12/20 00:54:09;;;;;;;5.80;2.10;;;;;;;4.92;93.59;98542.97;4941744;28;45295;-77
2020/12/20 00:56:35;;;;;;;8.73;3.00;;;;;;;4.91;94.17;98537.78;4941398;28;45259;-77
2020/12/20 00:59:01;;;;;;;5.70;2.63;;;;;;;4.93;93.34;98536.75;4941272;28;45366;-76
2020/12/20 01:01:26;;;;;;;3.40;2.00;;;;;;;4.99;93.80;98532.78;4941405;28;45572;-76
2020/12/20 01:03:53;;;;;;;3.30;2.40;;;;;;;5.00;93.74;98529.19;4940102;28;45547;-75
2020/12/20 01:06:20;;;;;;;3.83;2.13;;;;;;;5.05;93.68;98531.50;4937976;28;46176;-77
2020/12/20 01:08:46;;;;;;;6.13;2.92;;;;;;;5.12;93.49;98538.00;4940839;28;45434;-77
2020/12/20 01:11:13;;;;;;;4.25;2.05;;;;;;;5.08;93.11;98539.19;4941279;28;45357;-77
2020/12/20 01:13:42;;;;;;;4.47;1.95;;;;;;;5.05;93.14;98536.78;4941267;28;45215;-76
2020/12/20 01:16:30;;;;;;;5.20;2.00;;;;;;;5.10;93.42;98543.38;4940678;28;45361;-76
2020/12/20 01:18:57;;;;;;;8.07;3.80;;;;;;;4.94;93.19;98554.25;4940113;28;45452;-77
2020/12/20 01:21:22;;;;;;;13.20;7.75;;;;;;;4.89;92.76;98548.47;4925211;28;45627;-77
2020/12/20 01:23:48;;;;;;;19.98;11.82;;;;;;;4.91;91.82;98549.19;4954266;28;45647;-77
2020/12/20 01:26:15;;;;;;;20.88;12.20;;;;;;;4.85;91.44;98552.25;4940715;28;45938;-77
2020/12/20 01:28:41;;;;;;;19.65;11.82;;;;;;;4.69;91.63;98555.19;4940015;28;45505;-77
2020/12/20 01:31:08;;;;;;;19.67;12.07;;;;;;;4.62;91.77;98548.66;4955657;28;45523;-77
2020/12/20 01:33:35;;;;;;;7.38;4.07;;;;;;;4.70;93.03;98548.97;4940830;28;45459;-77
2020/12/20 01:36:11;;;;;;;5.38;3.38;;;;;;;4.90;92.62;98547.50;4938896;28;47315;-77
2020/12/20 01:38:37;;;;;;;5.50;3.67;;;;;;;5.00;92.48;98552.94;4940844;28;45283;-77
2020/12/20 01:41:04;;;;;;;6.40;3.88;;;;;;;5.06;92.61;98546.38;4940811;28;45250;-77
2020/12/20 01:43:51;;;;;;;5.43;2.42;;;;;;;5.18;92.60;98549.88;4940805;28;45257;-77
2020/12/20 01:46:19;;;;;;;8.00;4.35;;;;;;;5.16;91.52;98544.72;4940474;28;45463;-77
2020/12/20 01:48:47;;;;;;;13.27;7.90;;;;;;;4.96;91.19;98547.06;4955287;28;45378;-77
2020/12/20 01:51:13;;;;;;;11.52;6.65;;;;;;;4.93;91.63;98543.78;4940575;28;45468;-77
2020/12/20 01:53:40;;;;;;;7.97;5.40;;;;;;;4.96;92.16;98547.06;4940463;28;45383;-76
2020/12/20 01:56:06;;;;;;;9.68;4.40;;;;;;;5.00;92.06;98538.94;4939022;28;48141;-77
2020/12/20 01:58:36;;;;;;;4.78;2.85;;;;;;;5.04;92.22;98535.09;4940027;28;45353;-76
2020/12/20 02:01:12;;;;;;;4.93;2.30;;;;;;;5.05;91.84;98527.06;4940718;28;45312;-77
2020/12/20 02:03:37;;;;;;;5.82;3.13;;;;;;;4.90;92.06;98521.16;4955648;28;45349;-77
2020/12/20 02:06:04;;;;;;;5.25;2.03;;;;;;;4.99;92.83;98513.50;4931241;28;45512;-77
2020/12/20 02:08:31;;;;;;;3.20;1.52;;;;;;;5.05;92.30;98515.69;4955177;28;45342;-77
2020/12/20 02:11:25;;;;;;;3.25;1.50;;;;;;;4.93;93.67;98530.63;4940676;28;45325;-77
2020/12/20 02:13:51;;;;;;;17.77;10.50;;;;;;;4.51;92.58;98529.22;4914943;28;45354;-77
2020/12/20 02:16:22;;;;;;;16.20;9.77;;;;;;;4.79;92.28;98516.66;4939954;28;45350;-77
2020/12/20 02:18:48;;;;;;;18.85;10.55;;;;;;;4.76;91.64;98510.75;4939640;28;45218;-77
2020/12/20 02:21:15;;;;;;;14.82;7.13;;;;;;;4.79;91.52;98518.44;4940033;28;45263;-77
2020/12/20 02:23:41;;;;;;;5.57;3.40;;;;;;;4.77;92.37;98520.34;4940529;28;45556;-77
2020/12/20 02:26:07;;;;;;;7.38;4.47;;;;;;;4.88;91.24;98504.63;4940023;28;45408;-77
2020/12/20 02:28:33;;;;;;;10.38;4.88;;;;;;;5.01;90.92;98503.69;4954791;28;45330;-77
2020/12/20 02:30:58;;;;;;;9.07;4.47;;;;;;;5.02;90.74;98503.56;4940148;28;45370;-77
2020/12/20 02:33:24;;;;;;;8.50;3.80;;;;;;;5.04;90.42;98509.56;4955100;28;45529;-77
2020/12/20 02:35:49;;;;;;;7.15;3.88;;;;;;;5.06;89.58;98520.00;4939935;28;45417;-77
2020/12/20 02:38:15;;;;;;;8.00;3.95;;;;;;;5.10;90.09;98506.47;4940178;28;45348;-77
2020/12/20 02:40:40;;;;;;;4.88;2.70;;;;;;;5.09;90.77;98499.50;4940234;28;45359;-77
2020/12/20 02:43:06;;;;;;;3.75;2.30;;;;;;;5.06;91.63;98489.19;4954635;28;45304;-77
2020/12/20 02:45:31;;;;;;;3.90;1.90;;;;;;;5.04;92.33;98492.94;4939855;28;45220;-77
2020/12/20 02:47:57;;;;;;;3.63;1.70;;;;;;;5.09;91.57;98504.78;4971089;28;45320;-77
2020/12/20 02:50:22;;;;;;;2.78;1.42;;;;;;;5.03;92.06;98505.25;4939770;28;45351;-77
2020/12/20 02:52:47;;;;;;;11.05;5.50;;;;;;;4.99;91.31;98510.88;4954733;28;45219;-76
2020/12/20 02:55:13;;;;;;;16.85;9.30;;;;;;;4.82;89.75;98515.59;4939526;28;45418;-77
2020/12/20 02:57:38;;;;;;;19.38;10.02;;;;;;;4.68;90.26;98506.91;4970701;28;45394;-77
2020/12/20 03:00:04;;;;;;;14.98;8.65;;;;;;;4.60;90.45;98495.25;4939875;28;45280;-77
2020/12/20 03:02:29;;;;;;;7.32;3.92;;;;;;;4.64;91.26;98504.63;4939842;28;45374;-76
2020/12/20 03:04:55;;;;;;;4.93;2.10;;;;;;;4.75;92.75;98501.19;4940338;28;46256;-77
2020/12/20 03:07:20;;;;;;;4.82;1.92;;;;;;;4.88;93.15;98495.84;4939675;28;45282;-77
2020/12/20 03:09:45;;;;;;;6.38;1.73;;;;;;;4.99;93.17;98501.16;4938398;28;45248;-77
2020/12/20 03:12:11;;;;;;;3.33;1.52;;;;;;;5.08;92.92;98492.56;4939345;28;45274;-77
2020/12/20 03:14:36;;;;;;;10.82;6.90;;;;;;;5.08;91.07;98503.09;4939686;28;46620;-77
2020/12/20 03:17:01;;;;;;;13.85;8.20;;;;;;;4.89;90.33;98493.13;4926413;28;46662;-77
2020/12/20 03:19:27;;;;;;;11.75;6.78;;;;;;;4.77;91.06;98500.13;4939422;28;45469;-78
2020/12/20 03:21:52;;;;;;;12.98;6.82;;;;;;;4.76;91.22;98497.59;4939417;28;45434;-77
2020/12/20 03:24:18;;;;;;;12.25;7.80;;;;;;;4.72;90.55;98498.78;4939435;28;45494;-77
2020/12/20 03:26:43;;;;;;;17.58;9.65;;;;;;;4.68;89.63;98495.53;4939486;28;45327;-77
2020/12/20 03:29:08;;;;;;;14.00;8.82;;;;;;;4.76;89.67;98481.78;4970377;28;45492;-77
2020/12/20 03:31:34;;;;;;;11.80;6.25;;;;;;;4.77;90.51;98489.59;4941188;28;45544;-77
2020/12/20 03:33:59;;;;;;;12.35;6.47;;;;;;;4.78;90.15;98483.34;4939282;28;46159;-77
2020/12/20 03:36:25;;;;;;;7.63;4.53;;;;;;;4.77;90.31;98492.22;4939234;28;45362;-77
2020/12/20 03:38:50;;;;;;;8.45;3.97;;;;;;;4.82;91.22;98481.31;4970616;28;45386;-77
2020/12/20 03:41:15;;;;;;;4.57;2.72;;;;;;;4.89;91.45;98482.56;4954194;28;45774;-77
2020/12/20 03:43:41;;;;;;;5.35;2.67;;;;;;;4.96;91.54;98485.56;4939012;28;46076;-77
2020/12/20 03:46:06;;;;;;;8.73;2.40;;;;;;;4.97;91.33;98492.53;4937818;28;45339;-77
2020/12/20 03:48:32;;;;;;;5.45;2.58;;;;;;;4.93;91.58;98483.16;4939300;28;45534;-76
2020/12/20 03:50:57;;;;;;;4.05;2.20;;;;;;;4.87;92.00;98489.75;4939134;28;45513;-77
2020/12/20 03:53:23;;;;;;;4.15;2.53;;;;;;;4.86;92.46;98489.84;4970177;28;47725;-76
2020/12/20 03:55:48;;;;;;;2.90;2.00;;;;;;;4.89;92.48;98482.56;4938888;28;45204;-77
2020/12/20 03:58:13;;;;;;;3.47;1.92;;;;;;;4.87;92.36;98481.00;4938752;28;45305;-77
2020/12/20 04:00:39;;;;;;;2.63;1.58;;;;;;;4.90;92.24;98475.50;4937887;28;45262;-77
2020/12/20 04:03:05;;;;;;;9.70;6.53;;;;;;;4.76;90.16;98472.09;4938914;28;45924;-77
2020/12/20 04:05:30;;;;;;;8.95;5.03;;;;;;;4.73;91.08;98471.47;4939317;28;45518;-77
2020/12/20 04:07:55;;;;;;;6.05;4.03;;;;;;;4.73;90.81;98477.59;4939346;28;45210;-77
2020/12/20 04:10:21;;;;;;;7.20;4.22;;;;;;;4.78;90.96;98479.88;4938657;28;45585;-77
2020/12/20 04:12:46;;;;;;;8.77;4.93;;;;;;;4.70;90.77;98479.59;4938609;28;45389;-77
2020/12/20 04:15:12;;;;;;;5.43;2.67;;;;;;;4.79;92.34;98476.28;4953522;28;45665;-77
2020/12/20 04:17:37;;;;;;;6.45;3.92;;;;;;;4.84;91.28;98478.59;4953347;28;45395;-77
2020/12/20 04:20:02;;;;;;;6.18;2.70;;;;;;;4.81;92.21;98469.09;4938632;28;45305;-77
2020/12/20 04:22:28;;;;;;;5.13;3.47;;;;;;;4.82;91.71;98470.78;4938752;28;46072;-77
2020/12/20 04:24:53;;;;;;;6.65;3.10;;;;;;;4.85;91.12;98475.81;4937396;28;45384;-77
2020/12/20 04:27:19;;;;;;;4.00;2.30;;;;;;;4.95;91.12;98474.22;4938690;28;45343;-77
2020/12/20 04:29:44;;;;;;;6.13;2.88;;;;;;;4.99;91.81;98476.63;4938446;28;45294;-77
2020/12/20 04:32:10;;;;;;;6.38;2.72;;;;;;;5.10;89.75;98474.00;4938559;28;46101;-77
2020/12/20 04:34:35;;;;;;;7.88;4.22;;;;;;;4.93;90.12;98484.03;4938406;28;45409;-77
2020/12/20 04:37:00;;;;;;;13.10;7.30;;;;;;;4.85;88.31;98483.72;4938730;28;45340;-77
2020/12/20 04:39:26;;;;;;;11.65;7.35;;;;;;;4.68;86.58;98477.09;4938346;28;45204;-77
2020/12/20 04:41:51;;;;;;;12.77;6.82;;;;;;;4.75;87.15;98483.59;4969294;28;47742;-77
2020/12/20 04:44:17;;;;;;;12.13;6.90;;;;;;;4.66;86.68;98482.47;4941305;28;45384;-77
2020/12/20 04:46:43;;;;;;;11.50;6.80;;;;;;;4.72;87.19;98480.31;4941954;28;45320;-77
2020/12/20 04:49:11;;;;;;;12.68;6.70;;;;;;;4.73;87.21;98492.53;4941535;28;45535;-76
2020/12/20 04:51:39;;;;;;;10.60;6.35;;;;;;;4.75;88.51;98486.22;4956509;28;47896;-77
2020/12/20 04:54:06;;;;;;;9.90;6.15;;;;;;;4.77;89.36;98491.38;4941501;28;45357;-77
2020/12/20 04:56:35;;;;;;;11.32;7.57;;;;;;;4.66;88.25;98493.00;4941731;28;45271;-77
2020/12/20 04:59:04;;;;;;;9.82;6.50;;;;;;;4.61;88.73;98483.78;4929121;28;45319;-77
2020/12/20 05:01:30;;;;;;;8.88;4.88;;;;;;;4.63;89.57;98495.03;4941228;28;45519;-77
2020/12/20 05:03:55;;;;;;;10.23;5.57;;;;;;;4.68;89.59;98496.34;4942134;28;45298;-77
2020/12/20 05:06:20;;;;;;;6.45;3.90;;;;;;;4.79;90.08;98494.72;4941657;28;45517;-77
2020/12/20 05:08:46;;;;;;;6.70;2.92;;;;;;;4.83;91.34;98493.53;4941297;28;45413;-77
2020/12/20 05:11:37;;;;;;;4.35;2.50;;;;;;;4.95;90.39;98489.16;4941305;28;45381;-77
2020/12/20 05:14:04;;;;;;;3.75;2.20;;;;;;;5.01;91.42;98493.16;4961194;28;45666;-77
2020/12/20 05:16:37;;;;;;;5.35;3.17;;;;;;;4.99;91.58;98489.78;4941120;28;45567;-77
2020/12/20 05:19:06;;;;;;;4.78;2.63;;;;;;;4.99;91.98;98495.06;4941139;28;45375;-77
2020/12/20 05:21:32;;;;;;;5.85;3.50;;;;;;;4.76;92.93;98503.72;4940949;28;45421;-77
2020/12/20 05:23:59;;;;;;;6.10;3.88;;;;;;;4.83;91.19;98504.09;4941325;28;45281;-77
2020/12/20 05:26:31;;;;;;;10.85;4.15;;;;;;;4.94;89.99;98501.53;4941150;28;45385;-77
2020/12/20 05:29:08;;;;;;;8.18;5.10;;;;;;;5.02;89.10;98503.56;4940868;28;45278;-77
2020/12/20 05:31:34;;;;;;;17.10;9.55;;;;;;;4.99;88.59;98498.53;4959463;28;47782;-77
2020/12/20 05:33:59;;;;;;;44.38;22.17;;;;;;;5.03;88.21;98501.78;4941064;28;45543;-77
2020/12/20 05:36:26;;;;;;;12.77;7.57;;;;;;;5.08;88.26;98497.84;4941000;28;45236;-77
2020/12/20 05:38:52;;;;;;;7.90;4.18;;;;;;;5.14;89.88;98495.69;4955838;28;45424;-77
2020/12/20 05:41:29;;;;;;;4.97;3.10;;;;;;;5.10;90.68;98500.38;4941052;28;45343;-77
2020/12/20 05:44:23;;;;;;;10.93;5.68;;;;;;;4.87;89.33;98488.91;4939342;28;46024;-77
2020/12/20 05:46:49;;;;;;;10.00;5.72;;;;;;;4.95;89.73;98497.06;4941074;28;45301;-77
2020/12/20 05:49:17;;;;;;;8.27;4.60;;;;;;;4.99;88.42;98495.88;4955689;28;45663;-77
2020/12/20 05:52:06;;;;;;;6.55;3.72;;;;;;;5.08;88.79;98497.00;4940814;28;46074;-77
2020/12/20 05:54:33;;;;;;;6.60;4.03;;;;;;;5.02;90.37;98497.47;4940652;28;45483;-77
2020/12/20 05:57:19;;;;;;;5.55;3.58;;;;;;;5.10;87.21;98490.66;4955321;28;45396;-77
2020/12/20 05:59:46;;;;;;;9.60;3.28;;;;;;;5.15;89.55;98490.31;4940773;28;45342;-77
2020/12/20 06:02:12;;;;;;;4.95;2.90;;;;;;;5.17;87.43;98485.78;4927544;28;46170;-77
2020/12/20 06:04:39;;;;;;;9.43;4.00;;;;;;;5.19;85.18;98490.91;4938037;28;45468;-77
2020/12/20 06:07:09;;;;;;;7.65;4.88;;;;;;;5.23;83.06;98482.66;4933092;28;45580;-77
2020/12/20 06:09:59;;;;;;;9.25;4.35;;;;;;;5.25;84.46;98490.44;4952950;28;45466;-77
2020/12/20 06:12:27;;;;;;;9.88;4.10;;;;;;;5.18;85.58;98483.97;4938890;28;46378;-77
2020/12/20 06:14:53;;;;;;;6.60;3.53;;;;;;;5.23;86.98;98484.44;4939754;28;45468;-77
2020/12/20 06:17:23;;;;;;;5.75;3.22;;;;;;;5.20;88.09;98496.09;4939674;28;45461;-77
2020/12/20 06:19:56;;;;;;;7.18;3.55;;;;;;;5.09;88.88;98488.16;4954365;28;45450;-77
2020/12/20 06:22:25;;;;;;;6.38;2.92;;;;;;;5.06;89.98;98488.38;4954143;28;48022;-77
2020/12/20 06:24:54;;;;;;;6.93;3.50;;;;;;;5.03;89.12;98497.34;4939512;28;45402;-77
2020/12/20 06:27:21;;;;;;;8.40;4.53;;;;;;;4.81;88.03;98493.66;4954388;28;45322;-77
2020/12/20 06:29:49;;;;;;;8.57;5.32;;;;;;;4.88;87.36;98491.44;4939638;28;45454;-77
2020/12/20 06:32:23;;;;;;;9.10;5.65;;;;;;;4.90;87.89;98500.06;4938165;28;47472;-77
2020/12/20 06:34:49;;;;;;;11.35;7.38;;;;;;;4.74;87.27;98510.88;4939561;28;45316;-77
2020/12/20 06:37:17;;;;;;;12.90;8.18;;;;;;;4.77;86.33;98513.31;4939357;28;45540;-77
2020/12/20 06:39:43;;;;;;;11.85;7.57;;;;;;;4.76;86.52;98516.88;4939323;28;45517;-77
2020/12/20 06:42:08;;;;;;;12.85;7.97;;;;;;;4.56;88.02;98512.25;4939116;28;45335;-77
2020/12/20 06:44:34;;;;;;;14.98;9.13;;;;;;;4.57;88.24;98525.28;4954082;28;45412;-77
2020/12/20 06:46:59;;;;;;;16.52;10.45;;;;;;;4.60;87.59;98519.78;4939499;28;45473;-77
2020/12/20 06:49:37;;;;;;;17.63;10.60;;;;;;;4.48;87.74;98524.16;4939297;28;45415;-77
2020/12/20 06:52:28;;;;;;;17.63;11.18;;;;;;;4.46;88.25;98528.72;4939016;28;46012;-77
2020/12/20 06:55:14;;;;;;;;;;;;;;;4.56;88.20;98536.78;4938311;28;45423;-77
2020/12/20 06:58:01;;;;;;;17.50;10.32;;;;;;;4.55;88.37;98537.72;4926639;28;45427;-77
2020/12/20 07:00:39;;;;;;;16.17;10.63;;;;;;;4.45;88.21;98534.94;4937840;28;45228;-77
2020/12/20 07:03:05;;;;;;;16.27;10.35;;;;;;;4.58;88.60;98528.78;4937723;28;46520;-76
2020/12/20 07:05:33;;;;;;;16.92;10.40;;;;;;;4.57;88.08;98533.19;4938270;28;45374;-76
2020/12/20 07:08:13;;;;;;;29.33;20.27;;;;;;;4.52;88.07;98525.63;4939241;28;45550;-77
2020/12/20 07:11:00;;;;;;;23.33;12.00;;;;;;;4.51;88.43;98533.63;4930891;28;45351;-76
2020/12/20 07:13:32;;;;;;;20.27;11.32;;;;;;;4.51;89.01;98536.25;4935757;28;46054;-78
2020/12/20 07:16:12;;;;;;;20.15;14.05;;;;;;;4.51;88.66;98541.53;4938017;28;45497;-77
2020/12/20 07:18:41;;;;;;;20.42;12.10;;;;;;;4.66;88.71;98537.78;4953601;28;45319;-78
2020/12/20 07:21:19;;;;;;;16.67;10.60;;;;;;;4.68;89.46;98538.50;4930854;28;45421;-78
2020/12/20 07:24:16;;;;;;;16.08;10.02;;;;;;;4.62;88.98;98538.97;4948223;28;48003;-79
2020/12/20 07:26:41;;;;;;;17.98;10.68;;;;;;;4.64;88.79;98542.31;4931378;28;45397;-79
2020/12/20 07:29:07;;;;;;;23.40;15.23;;;;;;;4.57;88.49;98546.34;4937382;28;45713;-79
2020/12/20 07:31:34;;;;;;;21.23;14.20;;;;;;;4.45;88.83;98547.25;4935009;28;45659;-79
2020/12/20 07:34:00;;;;;;;21.92;13.50;;;;;;;4.47;88.73;98567.25;4945851;28;47670;-78
2020/12/20 07:36:26;;;;;;;21.42;13.25;;;;;;;4.42;89.33;98574.66;4936266;28;45460;-79
2020/12/20 07:38:52;;;;;;;22.38;14.48;;;;;;;4.37;89.39;98574.97;4936628;28;46052;-79
2020/12/20 07:41:20;;;;;;;22.45;13.98;;;;;;;4.42;88.97;98576.44;4932627;28;45460;-78
2020/12/20 07:43:48;;;;;;;21.63;14.73;;;;;;;4.44;89.10;98572.75;4934140;28;45535;-78
2020/12/20 07:46:15;;;;;;;19.98;13.70;;;;;;;4.51;89.58;98579.25;4932528;28;45814;-79
2020/12/20 07:48:41;;;;;;;19.90;12.90;;;;;;;4.51;88.98;98578.41;4933446;28;45446;-78
2020/12/20 07:51:07;;;;;;;22.13;14.48;;;;;;;4.52;90.18;98582.72;4958267;28;47295;-78
2020/12/20 07:53:34;;;;;;;24.33;15.10;;;;;;;4.52;89.58;98594.13;4934210;28;46438;-78
2020/12/20 07:56:00;;;;;;;28.00;15.05;;;;;;;4.48;91.10;98595.28;4930882;28;45616;-78
2020/12/20 07:58:29;;;;;;;24.05;15.02;;;;;;;4.50;90.83;98596.03;4948781;28;45660;-78
2020/12/20 08:01:07;;;;;;;23.25;15.65;;;;;;;4.48;90.84;98611.09;4932598;28;45425;-78
2020/12/20 08:03:35;;;;;;;26.52;16.35;;;;;;;4.51;91.25;98610.88;4932234;28;45583;-78
2020/12/20 08:06:08;;;;;;;24.35;15.75;;;;;;;4.51;90.92;98613.50;4932042;28;45521;-78
2020/12/20 08:08:34;;;;;;;27.05;17.40;;;;;;;4.61;91.16;98615.47;4933664;28;45369;-77
2020/12/20 08:11:02;;;;;;;23.23;15.30;;;;;;;4.53;91.12;98630.03;4934215;28;45445;-77
2020/12/20 08:13:29;;;;;;;23.02;15.45;;;;;;;4.48;92.62;98618.13;4957118;28;47946;-77
2020/12/20 08:15:55;;;;;;;27.38;15.25;;;;;;;4.38;92.08;98636.34;4933234;28;45505;-78
2020/12/20 08:18:20;;;;;;;24.60;15.00;;;;;;;4.35;92.31;98639.22;4952133;28;45501;-83
2020/12/20 08:20:46;;;;;;;25.20;15.35;;;;;;;4.59;92.03;98639.28;4935221;28;45500;-84
2020/12/20 08:23:12;;;;;;;26.48;15.40;;;;;;;4.79;91.76;98639.66;4939428;28;46338;-84
2020/12/20 08:25:37;;;;;;;24.27;14.15;;;;;;;4.64;90.56;98650.34;4937518;28;45643;-88
2020/12/20 08:28:03;;;;;;;22.38;13.68;;;;;;;4.63;90.83;98646.03;4963354;28;45468;-89
2020/12/20 08:30:28;;;;;;;20.58;13.52;;;;;;;4.79;90.12;98655.47;4954228;28;45596;-85
2020/12/20 08:32:54;;;;;;;21.33;13.43;;;;;;;4.87;89.71;98650.53;4949938;28;48254;-87
2020/12/20 08:35:22;;;;;;;20.38;13.43;;;;;;;4.99;90.06;98658.50;4953039;28;45584;-89
2020/12/20 08:37:59;;;;;;;19.80;13.30;;;;;;;4.82;91.74;98663.16;4953033;28;45561;-86
2020/12/20 08:40:31;;;;;;;20.52;12.38;;;;;;;4.99;91.60;98661.13;4934841;28;45700;-83
2020/12/20 08:42:58;;;;;;;24.35;13.30;;;;;;;4.99;92.23;98669.88;4955069;28;48415;-83
2020/12/20 08:45:24;;;;;;;22.83;14.35;;;;;;;5.05;92.18;98672.06;4938573;28;45378;-82
2020/12/20 08:47:50;;;;;;;20.45;12.95;;;;;;;5.11;90.68;98673.44;4940764;28;45476;-81
2020/12/20 08:50:23;;;;;;;19.13;12.70;;;;;;;5.21;90.05;98666.53;4940441;28;45574;-80
2020/12/20 08:53:00;;;;;;;23.42;13.88;;;;;;;5.24;88.97;98676.84;4937418;28;45491;-84
2020/12/20 08:55:26;;;;;;;23.00;12.82;;;;;;;5.31;88.82;98679.03;4939342;28;45508;-86
2020/12/20 08:58:09;;;;;;;21.58;13.52;;;;;;;5.20;88.15;98683.31;4939701;28;45807;-85
2020/12/20 09:00:35;;;;;;;21.48;13.38;;;;;;;5.32;89.06;98686.84;4936237;28;45775;-84
2020/12/20 09:03:03;;;;;;;22.00;13.35;;;;;;;5.25;90.34;98683.81;4937331;28;45585;-84
2020/12/20 09:05:34;;;;;;;23.63;14.32;;;;;;;5.34;89.42;98677.03;4951796;28;46110;-83
2020/12/20 09:08:02;;;;;;;21.63;13.98;;;;;;;5.39;89.45;98680.19;4961884;28;45637;-83
2020/12/20 09:10:30;;;;;;;22.27;13.38;;;;;;;5.46;88.43;98683.19;4951495;28;45533;-82
2020/12/20 09:13:01;;;;;;;24.25;16.20;;;;;;;5.53;88.05;98684.41;4934092;28;47667;-83
2020/12/20 09:15:29;;;;;;;24.33;15.20;;;;;;;5.58;88.37;98683.22;4936309;28;45475;-84
2020/12/20 09:18:16;;;;;;;22.77;14.88;;;;;;;5.62;89.55;98695.25;4936829;28;45698;-81
2020/12/20 09:20:43;;;;;;;22.40;15.27;;;;;;;5.45;89.55;98699.97;4935875;28;45617;-84
2020/12/20 09:23:26;;;;;;;22.83;14.20;;;;;;;5.64;89.34;98706.53;4936581;28;45492;-83
2020/12/20 09:26:03;;;;;;;26.40;15.10;;;;;;;5.71;88.97;98702.47;4936925;28;45552;-83
2020/12/20 09:28:30;;;;;;;22.95;14.60;;;;;;;5.73;89.88;98707.66;4936948;28;45281;-83
2020/12/20 09:30:57;;;;;;;25.25;16.10;;;;;;;5.77;89.72;98709.97;4951029;28;45735;-83
2020/12/20 09:33:28;;;;;;;27.40;16.40;;;;;;;5.80;89.47;98709.75;4935544;28;48386;-83
2020/12/20 09:36:02;;;;;;;25.05;16.23;;;;;;;5.89;88.94;98710.81;4937844;28;45535;-87
2020/12/20 09:38:37;;;;;;;31.50;18.23;;;;;;;5.72;88.84;98711.25;4937884;28;45522;-88
2020/12/20 09:41:04;;;;;;;36.03;18.98;;;;;;;5.61;90.85;98714.66;4951129;28;46126;-87
2020/12/20 09:43:30;;;;;;;27.83;17.98;;;;;;;5.79;90.51;98715.13;4934662;28;46187;-84
2020/12/20 09:45:57;;;;;;;30.10;19.38;;;;;;;5.64;90.68;98717.09;4934087;28;45552;-85
2020/12/20 09:48:22;;;;;;;28.85;18.10;;;;;;;5.52;91.33;98724.94;4936846;28;45600;-82
2020/12/20 09:50:48;;;;;;;28.88;18.13;;;;;;;5.78;90.67;98721.34;4935799;28;45789;-82
2020/12/20 09:53:13;;;;;;;27.10;18.38;;;;;;;5.91;91.38;98723.94;4935891;28;45875;-82
2020/12/20 09:55:42;;;;;;;29.17;17.23;;;;;;;5.89;90.87;98726.66;4959088;28;45511;-80
2020/12/20 09:58:16;;;;;;;28.63;17.20;;;;;;;5.97;89.91;98731.38;4938051;28;45520;-88
2020/12/20 10:00:43;;;;;;;27.60;17.63;;;;;;;5.91;90.13;98729.22;4934638;28;45540;-81
2020/12/20 10:03:10;;;;;;;28.88;18.48;;;;;;;5.91;90.23;98732.69;4935751;28;45546;-83
2020/12/20 10:05:36;;;;;;;29.38;17.95;;;;;;;5.82;90.38;98742.13;4950832;28;45492;-84
2020/12/20 10:08:02;;;;;;;27.65;18.23;;;;;;;5.86;89.61;98745.38;4936262;28;45778;-88
2020/12/20 10:10:28;;;;;;;28.63;18.65;;;;;;;5.97;90.20;98741.94;4935288;28;45548;-84
2020/12/20 10:12:56;;;;;;;27.60;17.75;;;;;;;6.02;89.93;98745.13;4931117;28;45602;-83
2020/12/20 10:15:21;;;;;;;29.05;17.50;;;;;;;5.98;89.38;98746.28;4958462;28;45828;-85
2020/12/20 10:17:47;;;;;;;27.33;18.23;;;;;;;6.13;89.36;98745.16;4932994;28;45568;-84
2020/12/20 10:20:12;;;;;;;27.88;17.95;;;;;;;6.24;89.42;98746.13;4935575;28;45820;-85
2020/12/20 10:22:38;;;;;;;28.10;18.67;;;;;;;6.15;89.52;98750.31;4935500;28;46036;-83
2020/12/20 10:25:06;;;;;;;30.35;17.60;;;;;;;6.09;89.08;98762.19;4936020;28;45485;-84
2020/12/20 10:27:31;;;;;;;28.92;17.90;;;;;;;6.13;89.28;98755.72;4936680;28;45575;-84
2020/12/20 10:29:57;;;;;;;26.90;17.30;;;;;;;6.20;89.35;98753.47;4935667;28;45626;-83
2020/12/20 10:32:22;;;;;;;30.92;17.73;;;;;;;6.16;88.86;98759.91;4934882;28;45499;-83
2020/12/20 10:34:48;;;;;;;25.58;16.42;;;;;;;6.20;89.26;98760.53;4934896;28;45828;-83
2020/12/20 10:37:13;;;;;;;27.35;16.90;;;;;;;6.13;87.71;98750.44;4935886;28;45536;-84
2020/12/20 10:39:39;;;;;;;28.33;16.60;;;;;;;6.05;89.42;98749.31;4935936;28;45564;-85
2020/12/20 10:42:04;;;;;;;27.90;17.65;;;;;;;6.17;89.89;98750.19;4957791;28;47228;-88
2020/12/20 10:44:30;;;;;;;34.90;20.23;;;;;;;6.23;89.82;98755.00;4933886;28;45509;-83
2020/12/20 10:46:55;;;;;;;28.48;18.80;;;;;;;6.32;89.56;98753.50;4936862;28;45628;-85
2020/12/20 10:49:21;;;;;;;29.90;18.90;;;;;;;6.32;89.35;98749.03;4932969;28;46723;-85
2020/12/20 10:51:54;;;;;;;31.45;18.70;;;;;;;6.19;89.28;98751.78;4935197;28;45487;-82
2020/12/20 10:54:29;;;;;;;28.55;18.20;;;;;;;5.93;88.76;98751.88;4934480;28;45585;-81
2020/12/20 10:56:58;;;;;;;29.00;18.35;;;;;;;5.93;89.95;98756.34;4937076;28;45525;-83
2020/12/20 10:59:26;;;;;;;32.38;18.65;;;;;;;6.02;90.98;98754.81;4938261;28;45402;-82
2020/12/20 11:01:53;;;;;;;30.08;18.10;;;;;;;6.08;90.81;98747.28;4937378;28;46441;-81
2020/12/20 11:04:18;;;;;;;32.08;20.17;;;;;;;6.25;90.35;98751.31;4934051;28;45829;-82
2020/12/20 11:06:44;;;;;;;32.30;20.05;;;;;;;6.31;90.15;98750.00;4935474;28;45468;-83
2020/12/20 11:09:09;;;;;;;58.25;38.38;;;;;;;6.36;90.44;98742.56;4935498;28;45688;-82
2020/12/20 11:11:35;;;;;;;38.63;25.05;;;;;;;6.33;90.40;98747.25;4934251;28;46593;-84
2020/12/20 11:14:01;;;;;;;31.55;20.45;;;;;;;6.33;89.87;98744.59;4935048;28;45617;-85
2020/12/20 11:16:27;;;;;;;32.72;20.17;;;;;;;6.45;89.62;98745.44;4949813;28;45577;-83
2020/12/20 11:18:53;;;;;;;32.58;20.20;;;;;;;6.48;89.58;98740.78;4935559;28;45821;-84
2020/12/20 11:21:19;;;;;;;35.33;22.33;;;;;;;6.46;89.94;98742.72;4931372;28;48204;-83
2020/12/20 11:23:47;;;;;;;35.40;22.65;;;;;;;6.49;89.85;98736.31;4935566;28;45577;-82
2020/12/20 11:26:18;;;;;;;37.47;23.67;;;;;;;6.56;89.46;98735.75;4950654;28;45811;-81
2020/12/20 11:28:45;;;;;;;35.85;23.30;;;;;;;6.42;91.44;98735.97;4949426;28;45807;-81
2020/12/20 11:31:15;;;;;;;35.10;22.83;;;;;;;6.48;91.33;98746.06;4948413;28;47253;-80
2020/12/20 11:33:40;;;;;;;34.92;23.42;;;;;;;6.59;91.23;98732.00;4933863;28;45560;-79
2020/12/20 11:36:06;;;;;;;35.17;23.33;;;;;;;6.59;91.09;98737.28;4935045;28;46145;-80